Hlavní strana
METAR-TAF:

METAR-TAF

Letiště :

Thule, Grónsko

zeměpisná šířka: 76-32N, zeměpisná délka: 068-42W, výška: 77 m

Aktuální stav počasí

Zpráva byla vytvořena před 47 minutami, v 06:56 UTC
Východní vítr 9 kt
Teplota -24°C
Vlhkost vzduchu 83%
Tlak 1007 hPa
Viditelnost 10 km a více
Jasno

METAR: BGTL 200656Z AUTO 10009KT 9999 CLR M24/M26 A2974 RMK AO2 SLP064 T12391265 TSNO $

Čas: 03:43 (07:43 UTC)

Předpověď počasí

Zpráva byla vytvořena před 13 hodinami a 43 minutami, v 18:00 UTC
Předpověď platná od 19 v 18 UTC do 20 v 24 UTC
vítr z různých směrů 6 kt
Viditelnost: 2010 m
Skoro jasno ve výšce 6000 ft
Polojasno ve výšce 16000 ft

TAF: BGTL 191800Z 1918/2024 VRB06KT 9999 FEW060 SCT160 QNH2961INS TXM22/2006Z TNM29/1920Z LAST NO AMDS AFT 1920 NEXT 2010

Stav a předpovědi počasí z více než 4 000 letišť (zprávy METAR a TAF).

Červené a žluté tečky na mapě představují dostupné meteorologické stanice.

Když kurzor umístíte na tečku, zobrazí se název stanice.

Pak kliknutím zobrazíte stav a předpověď počasí.

Chcete-li změnit mapu, kliknutím na zelené tlačítko se znaménkem +mapu přiblížíte, kliknutím na zelené tlačítko se znaménkem – mapu oddálíte a kliknutím na zelené šipky přejdete na sousední mapy.


METAR-TAF: